Time;durP1;ratioP1;P1;durP2;ratioP2;P2;SDS_P1;SDS_P2;PMS_P1;PMS_P2;Temp;Humidity;BMP_temperature;BMP_pressure;BME280_temperature;BME280_humidity;BME280_pressure;Samples;Min_cycle;Max_cycle;Signal;HPM_P1;HPM_P2
2021/01/17 00:00:14;;;;;;;0.57;0.57;;;1.10;99.90;;;;;;5035966;28;20657;-84
2021/01/17 00:02:43;;;;;;;0.60;0.60;;;0.80;99.90;;;;;;5038027;28;20182;-84
2021/01/17 00:05:10;;;;;;;4.10;1.63;;;0.90;99.90;;;;;;5036963;28;20293;-84
2021/01/17 00:07:36;;;;;;;0.40;0.40;;;1.00;99.90;;;;;;5052265;28;20224;-83
2021/01/17 00:10:07;;;;;;;0.50;0.50;;;1.10;99.90;;;;;;5041262;28;20297;-84
2021/01/17 00:12:32;;;;;;;0.50;0.50;;;1.10;99.90;;;;;;5042340;28;20661;-84
2021/01/17 00:14:58;;;;;;;0.57;0.50;;;1.20;99.90;;;;;;5038258;28;20226;-84
2021/01/17 00:17:24;;;;;;;0.57;0.57;;;1.30;99.90;;;;;;5037600;28;20193;-84
2021/01/17 00:19:49;;;;;;;0.40;0.40;;;1.30;99.90;;;;;;5037682;28;20198;-85
2021/01/17 00:22:19;;;;;;;1.60;0.50;;;1.20;99.90;;;;;;5038905;28;20232;-84
2021/01/17 00:24:45;;;;;;;0.27;0.27;;;1.10;99.90;;;;;;5037428;28;20193;-83
2021/01/17 00:27:12;;;;;;;2.27;1.23;;;0.80;99.90;;;;;;5049311;28;20665;-83
2021/01/17 00:29:37;;;;;;;2.63;0.70;;;0.90;99.90;;;;;;5036852;28;20710;-85
2021/01/17 00:32:07;;;;;;;0.43;0.43;;;1.10;99.90;;;;;;5052656;28;20198;-84
2021/01/17 00:34:33;;;;;;;0.50;0.50;;;1.10;99.90;;;;;;5035856;28;20185;-84
2021/01/17 00:36:58;;;;;;;4.90;0.30;;;1.20;99.90;;;;;;5035774;28;20186;-84
2021/01/17 00:39:24;;;;;;;0.30;0.30;;;1.30;99.90;;;;;;5053127;28;20216;-84
2021/01/17 00:41:49;;;;;;;0.63;0.53;;;1.30;99.90;;;;;;5035273;28;20191;-84
2021/01/17 00:44:15;;;;;;;0.30;0.30;;;1.30;99.90;;;;;;5049968;28;20661;-84
2021/01/17 00:46:41;;;;;;;1.03;0.77;;;1.30;99.90;;;;;;5041531;28;20205;-84
2021/01/17 00:49:07;;;;;;;0.63;0.60;;;1.30;99.90;;;;;;5052918;28;20189;-83
2021/01/17 00:51:46;;;;;;;1.13;1.03;;;1.40;99.90;;;;;;5047544;28;20242;-84
2021/01/17 00:54:14;;;;;;;0.30;0.30;;;1.40;99.90;;;;;;5036667;28;20176;-85
2021/01/17 00:56:40;;;;;;;1.87;1.20;;;1.40;99.90;;;;;;5036982;28;20202;-84
2021/01/17 00:59:08;;;;;;;0.80;0.80;;;1.40;99.90;;;;;;5036284;28;20213;-83
2021/01/17 01:01:40;;;;;;;1.40;1.30;;;1.40;99.90;;;;;;5035348;28;20217;-85
2021/01/17 01:04:11;;;;;;;1.37;0.73;;;1.30;99.90;;;;;;5036109;28;20194;-84
2021/01/17 01:06:37;;;;;;;0.60;0.53;;;1.30;99.90;;;;;;5037757;28;20225;-83
2021/01/17 01:09:12;;;;;;;0.87;0.70;;;1.40;99.90;;;;;;5041632;28;20189;-84
2021/01/17 01:11:38;;;;;;;0.53;0.40;;;1.30;99.90;;;;;;5036039;28;20198;-86
2021/01/17 01:14:05;;;;;;;0.40;0.40;;;1.30;99.90;;;;;;5036019;28;20189;-85
2021/01/17 01:16:31;;;;;;;0.30;0.30;;;1.30;99.90;;;;;;5047668;28;20221;-84
2021/01/17 01:18:57;;;;;;;0.20;0.20;;;1.40;99.90;;;;;;5038063;28;20182;-84
2021/01/17 01:21:30;;;;;;;0.30;0.30;;;1.30;99.90;;;;;;5045561;28;20191;-86
2021/01/17 01:23:57;;;;;;;0.80;0.50;;;1.30;99.90;;;;;;5047780;28;20186;-83
2021/01/17 01:26:23;;;;;;;0.87;0.87;;;1.30;99.90;;;;;;5054413;28;20206;-84
2021/01/17 01:28:54;;;;;;;1.57;0.70;;;1.40;99.90;;;;;;5043913;28;20191;-84
2021/01/17 01:31:21;;;;;;;1.50;0.47;;;1.40;99.90;;;;;;5037668;28;20217;-84
2021/01/17 01:33:48;;;;;;;1.30;0.83;;;1.40;99.90;;;;;;5026828;28;20179;-83
2021/01/17 01:36:29;;;;;;;0.70;0.70;;;1.30;99.90;;;;;;5051464;28;20209;-85
2021/01/17 01:38:56;;;;;;;0.40;0.40;;;1.20;99.90;;;;;;5041498;28;20211;-84
2021/01/17 01:41:28;;;;;;;5.23;1.40;;;1.10;99.90;;;;;;5055210;28;20258;-84
2021/01/17 01:43:54;;;;;;;2.03;0.67;;;1.10;99.90;;;;;;5040771;28;20195;-84
2021/01/17 01:46:25;;;;;;;1.13;1.13;;;1.10;99.90;;;;;;5040671;28;20220;-84
2021/01/17 01:48:53;;;;;;;2.10;0.67;;;1.10;99.90;;;;;;5046572;28;20183;-84
2021/01/17 01:51:20;;;;;;;0.33;0.33;;;1.10;99.90;;;;;;5035987;28;20212;-84
2021/01/17 01:53:46;;;;;;;1.17;0.77;;;1.00;99.90;;;;;;5052712;28;20750;-83
2021/01/17 01:56:13;;;;;;;1.67;0.93;;;0.80;99.90;;;;;;5041615;28;20201;-83
2021/01/17 01:58:40;;;;;;;0.23;0.23;;;0.70;99.90;;;;;;5045148;28;20297;-84
2021/01/17 02:01:06;;;;;;;0.10;0.10;;;0.80;99.90;;;;;;5035269;28;20194;-83
2021/01/17 02:03:32;;;;;;;1.27;0.90;;;0.90;99.90;;;;;;5041851;28;20197;-83
2021/01/17 02:05:58;;;;;;;0.70;0.70;;;1.00;99.90;;;;;;5035866;28;20209;-84
2021/01/17 02:08:50;;;;;;;1.20;0.80;;;1.10;99.90;;;;;;5035888;28;20562;-85
2021/01/17 02:11:46;;;;;;;0.80;0.80;;;0.90;99.90;;;;;;5033293;28;20262;-84
2021/01/17 02:14:28;;;;;;;0.27;0.17;;;0.80;99.90;;;;;;5036565;28;20647;-84
2021/01/17 02:16:56;;;;;;;0.50;0.50;;;0.70;99.90;;;;;;5052285;28;20202;-84
2021/01/17 02:19:29;;;;;;;1.03;0.80;;;0.80;99.90;;;;;;5036719;28;20193;-83
2021/01/17 02:21:58;;;;;;;0.77;0.67;;;0.60;99.90;;;;;;5048643;28;20193;-84
2021/01/17 02:24:32;;;;;;;0.70;0.70;;;0.70;99.90;;;;;;5027667;28;20187;-84
2021/01/17 02:27:02;;;;;;;0.93;0.57;;;0.90;99.90;;;;;;5050976;28;20186;-84
2021/01/17 02:29:28;;;;;;;0.53;0.43;;;0.60;99.90;;;;;;5034905;28;20186;-83
2021/01/17 02:32:01;;;;;;;1.03;0.70;;;0.70;99.90;;;;;;5040991;28;20779;-83
2021/01/17 02:34:29;;;;;;;0.90;0.80;;;0.70;99.90;;;;;;5043406;28;20244;-85
2021/01/17 02:37:19;;;;;;;1.83;0.70;;;0.80;99.90;;;;;;5040722;28;20186;-85
2021/01/17 02:39:55;;;;;;;0.40;0.40;;;0.90;99.90;;;;;;5035712;28;20186;-84
2021/01/17 02:42:21;;;;;;;0.43;0.43;;;0.80;99.90;;;;;;5039453;28;20355;-84
2021/01/17 02:44:47;;;;;;;1.60;1.50;;;0.90;99.90;;;;;;5039604;28;20234;-84
2021/01/17 02:47:13;;;;;;;0.73;0.73;;;1.00;99.90;;;;;;5036354;28;20190;-85
2021/01/17 02:49:38;;;;;;;0.20;0.20;;;1.00;99.90;;;;;;5039790;28;20195;-84
2021/01/17 02:52:06;;;;;;;0.30;0.30;;;1.00;99.90;;;;;;5026974;28;20174;-83
2021/01/17 02:54:35;;;;;;;1.30;1.07;;;1.00;99.90;;;;;;5039981;28;20200;-84
2021/01/17 02:57:09;;;;;;;0.73;0.73;;;0.90;99.90;;;;;;5048254;28;20446;-83
2021/01/17 02:59:49;;;;;;;2.37;1.00;;;0.80;99.90;;;;;;5048740;28;20235;-84
2021/01/17 03:02:15;;;;;;;0.57;0.57;;;0.80;99.90;;;;;;5048951;28;20169;-84
2021/01/17 03:04:47;;;;;;;1.90;1.57;;;0.90;99.90;;;;;;5046190;28;20194;-85
2021/01/17 03:07:14;;;;;;;0.93;0.50;;;0.70;99.90;;;;;;5034821;28;20651;-85
2021/01/17 03:09:43;;;;;;;0.40;0.40;;;0.80;99.90;;;;;;5047996;28;20189;-84
2021/01/17 03:12:09;;;;;;;1.13;0.70;;;0.70;99.90;;;;;;5036017;28;20801;-85
2021/01/17 03:14:36;;;;;;;0.50;0.50;;;0.40;99.90;;;;;;5054961;28;20182;-84
2021/01/17 03:17:08;;;;;;;0.50;0.50;;;0.50;99.90;;;;;;5054132;28;20193;-83
2021/01/17 03:19:35;;;;;;;1.03;0.93;;;0.50;99.90;;;;;;5055427;28;20237;-84
2021/01/17 03:22:01;;;;;;;1.73;1.20;;;0.20;99.90;;;;;;5040045;28;20740;-83
2021/01/17 03:24:27;;;;;;;2.00;0.57;;;0.30;99.90;;;;;;5040544;28;20563;-83
2021/01/17 03:26:52;;;;;;;0.70;0.70;;;0.40;99.90;;;;;;5032722;28;20184;-84
2021/01/17 03:29:18;;;;;;;0.60;0.47;;;0.60;99.90;;;;;;5048343;28;20185;-84
2021/01/17 03:31:44;;;;;;;0.53;0.53;;;0.40;99.90;;;;;;5038957;28;20302;-84
2021/01/17 03:34:12;;;;;;;1.73;0.70;;;0.50;99.90;;;;;;5028327;28;20199;-83
2021/01/17 03:36:37;;;;;;;1.20;0.90;;;0.40;99.90;;;;;;5036966;28;20264;-84
2021/01/17 03:39:07;;;;;;;0.40;0.40;;;0.50;99.90;;;;;;5036675;28;20654;-86
2021/01/17 03:41:32;;;;;;;1.30;1.17;;;0.40;99.90;;;;;;5041008;28;20189;-84
2021/01/17 03:43:58;;;;;;;1.03;0.50;;;0.30;99.90;;;;;;5047886;28;20620;-85
2021/01/17 03:46:24;;;;;;;0.77;0.47;;;0.20;99.90;;;;;;5036030;28;20233;-84
2021/01/17 03:48:50;;;;;;;0.63;0.60;;;0.30;99.90;;;;;;5036263;28;20263;-83
2021/01/17 03:51:16;;;;;;;1.60;0.40;;;0.40;99.90;;;;;;5038958;28;20279;-86
2021/01/17 03:53:42;;;;;;;0.70;0.67;;;0.70;99.90;;;;;;5039907;28;20190;-85
2021/01/17 03:56:07;;;;;;;0.57;0.50;;;0.80;99.90;;;;;;5049079;28;20246;-84
2021/01/17 03:58:33;;;;;;;0.57;0.43;;;1.00;99.90;;;;;;5035959;28;20187;-84
2021/01/17 04:00:58;;;;;;;0.73;0.63;;;1.00;99.90;;;;;;5035546;28;20185;-84
2021/01/17 04:03:24;;;;;;;1.00;0.73;;;0.70;99.90;;;;;;5041831;28;20202;-85
2021/01/17 04:05:50;;;;;;;0.50;0.50;;;0.50;99.90;;;;;;5040673;28;20205;-85
2021/01/17 04:08:15;;;;;;;1.30;0.53;;;0.30;99.90;;;;;;5044841;28;20590;-85
2021/01/17 04:10:41;;;;;;;0.50;0.50;;;0.30;99.90;;;;;;5050255;28;20214;-86
2021/01/17 04:13:06;;;;;;;0.30;0.30;;;0.50;99.90;;;;;;5038087;28;20686;-85
2021/01/17 04:15:32;;;;;;;0.77;0.67;;;0.60;99.90;;;;;;5052939;28;20226;-86
2021/01/17 04:17:57;;;;;;;0.27;0.27;;;0.40;99.90;;;;;;5047711;28;20193;-86
2021/01/17 04:20:23;;;;;;;0.33;0.20;;;0.40;99.90;;;;;;5034032;28;20188;-86
2021/01/17 04:22:48;;;;;;;2.30;0.67;;;0.60;99.90;;;;;;5052690;28;20225;-85
2021/01/17 04:25:19;;;;;;;1.30;0.80;;;0.30;99.90;;;;;;5054209;28;20694;-86
2021/01/17 04:27:45;;;;;;;0.70;0.57;;;0.10;99.90;;;;;;5047750;28;20193;-85
2021/01/17 04:30:11;;;;;;;0.50;0.50;;;0.40;99.90;;;;;;5035479;28;20206;-85
2021/01/17 04:32:40;;;;;;;0.53;0.53;;;0.50;99.90;;;;;;5037075;28;20182;-85
2021/01/17 04:35:06;;;;;;;0.53;0.43;;;0.70;99.90;;;;;;5039900;28;20296;-85
2021/01/17 04:37:32;;;;;;;1.27;0.70;;;0.80;99.90;;;;;;5057176;28;20674;-86
2021/01/17 04:39:57;;;;;;;1.03;0.93;;;0.90;99.90;;;;;;5049030;28;20273;-86
2021/01/17 04:42:23;;;;;;;1.00;0.93;;;1.00;99.90;;;;;;5043977;28;20201;-85
2021/01/17 04:44:53;;;;;;;1.97;0.57;;;1.00;99.90;;;;;;5044427;28;20218;-84
2021/01/17 04:47:20;;;;;;;1.00;0.83;;;1.00;99.90;;;;;;5058630;28;20178;-86
2021/01/17 04:49:49;;;;;;;2.20;1.97;;;0.60;99.90;;;;;;5047439;28;20225;-85
2021/01/17 04:52:18;;;;;;;2.00;1.03;;;0.10;99.90;;;;;;5055914;28;20564;-86
2021/01/17 04:54:44;;;;;;;1.40;0.93;;;-0.10;99.90;;;;;;5048351;28;20178;-85
2021/01/17 04:57:28;;;;;;;1.33;1.13;;;0.00;99.90;;;;;;5050359;28;20190;-85
2021/01/17 05:00:10;;;;;;;1.17;1.07;;;-0.10;99.90;;;;;;5044703;28;20183;-85
2021/01/17 05:02:57;;;;;;;0.30;0.30;;;-0.40;99.90;;;;;;5025036;28;20195;-85
2021/01/17 05:05:25;;;;;;;1.00;1.00;;;-0.50;99.90;;;;;;5038981;28;20215;-85
2021/01/17 05:08:08;;;;;;;0.83;0.80;;;-0.40;99.90;;;;;;5046383;28;20558;-85
2021/01/17 05:10:38;;;;;;;0.70;0.70;;;-0.30;99.90;;;;;;5050759;28;20210;-85
2021/01/17 05:13:09;;;;;;;2.33;0.77;;;-0.10;99.90;;;;;;5038672;28;20185;-85
2021/01/17 05:15:43;;;;;;;1.23;1.13;;;0.10;99.90;;;;;;5055451;28;20214;-85
2021/01/17 05:18:09;;;;;;;0.57;0.50;;;0.30;99.90;;;;;;5040191;28;20178;-87
2021/01/17 05:20:35;;;;;;;0.27;0.27;;;0.40;99.90;;;;;;5040004;28;20201;-86
2021/01/17 05:23:00;;;;;;;0.30;0.30;;;0.60;99.90;;;;;;5039234;28;20187;-86
2021/01/17 05:25:28;;;;;;;0.83;0.83;;;0.70;99.90;;;;;;5036995;28;20214;-85
2021/01/17 05:27:54;;;;;;;1.70;0.57;;;0.60;99.90;;;;;;5042628;28;20713;-85
2021/01/17 05:30:21;;;;;;;0.97;0.97;;;0.70;99.90;;;;;;5039182;28;20206;-84
2021/01/17 05:32:50;;;;;;;1.53;1.03;;;0.60;99.90;;;;;;5038172;28;20300;-84
2021/01/17 05:35:21;;;;;;;0.37;0.37;;;0.70;99.90;;;;;;5052594;28;20257;-85
2021/01/17 05:37:48;;;;;;;1.27;1.13;;;0.80;99.90;;;;;;5042974;22;20242;-80
2021/01/17 05:40:14;;;;;;;0.63;0.63;;;0.90;99.90;;;;;;5010530;28;20187;-81
2021/01/17 05:42:42;;;;;;;0.40;0.40;;;1.00;99.90;;;;;;5010644;28;20574;-80
2021/01/17 05:45:10;;;;;;;0.67;0.57;;;0.60;99.90;;;;;;5011606;28;20187;-80
2021/01/17 05:47:36;;;;;;;2.53;1.00;;;0.50;99.90;;;;;;5011021;28;20212;-81
2021/01/17 05:50:07;;;;;;;1.27;0.73;;;0.30;99.90;;;;;;5009599;28;20211;-80
2021/01/17 05:52:34;;;;;;;1.13;0.83;;;0.60;99.90;;;;;;5012441;28;20189;-80
2021/01/17 05:55:00;;;;;;;1.90;0.83;;;0.70;99.90;;;;;;5012305;28;20227;-80
2021/01/17 05:57:26;;;;;;;0.83;0.80;;;0.80;99.90;;;;;;5012553;28;20204;-80
2021/01/17 05:59:53;;;;;;;0.73;0.73;;;1.00;99.90;;;;;;5009606;28;20269;-80
2021/01/17 06:02:20;;;;;;;0.87;0.87;;;0.60;99.90;;;;;;5010261;28;20194;-80
2021/01/17 06:04:57;;;;;;;2.90;2.03;;;0.30;99.90;;;;;;5010790;28;20194;-79
2021/01/17 06:07:25;;;;;;;1.23;0.60;;;0.20;99.90;;;;;;5011068;28;20199;-79
2021/01/17 06:10:01;;;;;;;0.67;0.67;;;0.30;99.90;;;;;;5009049;28;20219;-78
2021/01/17 06:12:35;;;;;;;3.27;0.90;;;0.50;99.90;;;;;;5010701;28;20202;-78
2021/01/17 06:15:03;;;;;;;3.77;1.00;;;0.50;99.90;;;;;;5012048;28;20234;-79
2021/01/17 06:17:33;;;;;;;3.00;1.27;;;0.40;99.90;;;;;;5010441;28;20208;-81
2021/01/17 06:20:01;;;;;;;2.63;0.37;;;0.30;99.90;;;;;;5007764;28;20566;-80
2021/01/17 06:22:28;;;;;;;0.20;0.20;;;0.00;99.90;;;;;;5026823;28;20673;-80
2021/01/17 06:24:59;;;;;;;0.97;0.97;;;0.00;99.90;;;;;;5008250;28;20245;-80
2021/01/17 06:27:27;;;;;;;5.73;0.70;;;0.00;99.90;;;;;;4998055;28;20207;-83
2021/01/17 06:29:53;;;;;;;1.13;1.13;;;0.00;99.90;;;;;;5009076;28;20217;-82
2021/01/17 06:32:20;;;;;;;1.07;1.07;;;0.00;99.90;;;;;;5011084;28;20172;-83
2021/01/17 06:34:47;;;;;;;4.43;1.33;;;-0.10;99.90;;;;;;5010209;28;20206;-82
2021/01/17 06:37:15;;;;;;;1.80;0.43;;;0.20;99.90;;;;;;5007542;28;20225;-82
2021/01/17 06:39:42;;;;;;;0.33;0.30;;;0.30;99.90;;;;;;5012331;28;20679;-83
2021/01/17 06:42:13;;;;;;;0.97;0.97;;;0.60;99.90;;;;;;5009814;28;20191;-83
2021/01/17 06:44:39;;;;;;;0.93;0.83;;;0.70;99.90;;;;;;5011266;28;20191;-80
2021/01/17 06:47:14;;;;;;;0.37;0.37;;;0.70;99.90;;;;;;5008620;28;20183;-81
2021/01/17 06:49:39;;;;;;;0.83;0.80;;;0.80;99.90;;;;;;5008646;28;20617;-80
2021/01/17 06:52:06;;;;;;;0.30;0.30;;;0.90;99.90;;;;;;5010600;28;20221;-81
2021/01/17 06:54:34;;;;;;;1.03;0.73;;;1.00;99.90;;;;;;5010525;28;20183;-79
2021/01/17 06:57:01;;;;;;;0.40;0.40;;;1.00;99.90;;;;;;5010060;28;20238;-80
2021/01/17 06:59:30;;;;;;;0.87;0.73;;;1.10;99.90;;;;;;5010166;28;20230;-78
2021/01/17 07:02:24;;;;;;;0.57;0.40;;;1.20;99.90;;;;;;5008960;28;20183;-78
2021/01/17 07:05:06;;;;;;;0.90;0.90;;;1.30;99.90;;;;;;4999244;28;20195;-80
2021/01/17 07:08:02;;;;;;;1.10;0.87;;;1.30;99.90;;;;;;5009013;28;20207;-82
2021/01/17 07:10:39;;;;;;;1.03;1.03;;;1.20;99.90;;;;;;5008356;28;20660;-81
2021/01/17 07:13:09;;;;;;;1.37;0.67;;;1.00;99.90;;;;;;5005859;28;20183;-80
2021/01/17 07:15:39;;;;;;;0.57;0.57;;;1.20;99.90;;;;;;5008977;28;20194;-79
2021/01/17 07:18:08;;;;;;;1.70;1.23;;;1.30;99.90;;;;;;5008363;28;20195;-80
2021/01/17 07:20:38;;;;;;;0.27;0.27;;;1.40;99.90;;;;;;5007197;28;20629;-80
2021/01/17 07:23:06;;;;;;;0.30;0.30;;;1.40;99.90;;;;;;5007151;28;20188;-80
2021/01/17 07:25:34;;;;;;;1.53;1.30;;;1.40;99.90;;;;;;5009223;28;20197;-80
2021/01/17 07:28:11;;;;;;;1.27;1.17;;;1.40;99.90;;;;;;5004113;28;20199;-79
2021/01/17 07:31:00;;;;;;;2.37;1.17;;;1.50;99.90;;;;;;5005882;28;20226;-81
2021/01/17 07:33:27;;;;;;;0.33;0.33;;;1.50;99.90;;;;;;5009622;28;20217;-79
2021/01/17 07:35:55;;;;;;;0.43;0.43;;;1.50;99.90;;;;;;5007579;28;20287;-79
2021/01/17 07:38:26;;;;;;;0.50;0.50;;;1.50;99.90;;;;;;5010659;28;20211;-80
2021/01/17 07:40:56;;;;;;;1.00;0.90;;;1.50;99.90;;;;;;5006047;28;20194;-80
2021/01/17 07:43:22;;;;;;;0.20;0.20;;;1.60;99.90;;;;;;5007957;28;20334;-79
2021/01/17 07:45:49;;;;;;;0.77;0.77;;;1.60;99.90;;;;;;5004711;28;20196;-79
2021/01/17 07:48:15;;;;;;;2.00;1.30;;;1.50;99.90;;;;;;5009079;28;20210;-80
2021/01/17 07:50:44;;;;;;;2.77;0.67;;;1.50;99.90;;;;;;5004929;28;20211;-80
2021/01/17 07:53:36;;;;;;;1.00;0.67;;;1.60;99.90;;;;;;5009545;28;20175;-80
2021/01/17 07:56:33;;;;;;;0.90;0.70;;;1.60;99.90;;;;;;5005723;28;20186;-78
2021/01/17 07:59:09;;;;;;;0.30;0.30;;;1.50;99.90;;;;;;4996796;28;20208;-80
2021/01/17 08:01:34;;;;;;;0.80;0.63;;;1.60;99.90;;;;;;5007610;28;20182;-80
2021/01/17 08:04:06;;;;;;;1.23;1.17;;;1.50;99.90;;;;;;5010381;28;20539;-80
2021/01/17 08:06:34;;;;;;;1.40;1.00;;;1.30;99.90;;;;;;5012081;28;20201;-80
2021/01/17 08:09:04;;;;;;;1.77;1.07;;;1.30;99.90;;;;;;5009305;28;20207;-80
2021/01/17 08:11:42;;;;;;;0.37;0.30;;;1.30;99.90;;;;;;5006410;28;20257;-80
2021/01/17 08:14:17;;;;;;;0.30;0.30;;;1.40;99.90;;;;;;5009431;28;20263;-78
2021/01/17 08:17:05;;;;;;;1.03;0.70;;;1.50;99.90;;;;;;5010560;28;20184;-79
2021/01/17 08:19:34;;;;;;;0.63;0.63;;;1.70;99.90;;;;;;5017828;28;20191;-80
2021/01/17 08:22:20;;;;;;;0.20;0.20;;;1.80;99.90;;;;;;5011521;28;20271;-80
2021/01/17 08:24:54;;;;;;;2.23;0.83;;;1.90;99.90;;;;;;4997719;28;20704;-80
2021/01/17 08:30:11;;;;;;;1.30;1.20;;;2.00;99.90;;;;;;5013213;28;20243;-80
2021/01/17 08:32:49;;;;;;;1.60;0.73;;;2.00;99.90;;;;;;5002891;28;20247;-79
2021/01/17 08:35:20;;;;;;;0.30;0.30;;;2.00;99.90;;;;;;5012800;28;20652;-80
2021/01/17 08:37:49;;;;;;;1.03;1.00;;;2.10;99.90;;;;;;5011943;28;20251;-80
2021/01/17 08:40:16;;;;;;;1.03;0.90;;;2.10;99.90;;;;;;5011510;28;20656;-80
2021/01/17 08:42:50;;;;;;;0.57;0.57;;;2.10;99.90;;;;;;5012970;28;20190;-79
2021/01/17 08:45:19;;;;;;;0.57;0.57;;;2.10;99.90;;;;;;5010944;28;20304;-79
2021/01/17 08:47:45;;;;;;;1.30;1.20;;;2.10;99.90;;;;;;5009581;28;20203;-80
2021/01/17 08:50:31;;;;;;;0.50;0.50;;;2.10;99.90;;;;;;5000255;28;20216;-80
2021/01/17 08:53:10;;;;;;;0.40;0.40;;;2.10;99.90;;;;;;5011379;28;20197;-78
2021/01/17 08:55:43;;;;;;;0.90;0.90;;;2.20;99.90;;;;;;5009296;28;20184;-80
2021/01/17 08:58:13;;;;;;;0.50;0.50;;;2.30;99.90;;;;;;4998801;28;20209;-79
2021/01/17 09:00:57;;;;;;;1.73;0.90;;;2.30;99.90;;;;;;5004893;28;20190;-78
2021/01/17 09:03:30;;;;;;;1.40;0.93;;;2.30;99.90;;;;;;5010023;28;20194;-80
2021/01/17 09:05:57;;;;;;;1.00;1.00;;;2.40;99.90;;;;;;5001922;28;20188;-80
2021/01/17 09:08:22;;;;;;;1.23;1.07;;;2.50;99.90;;;;;;5005036;28;20213;-80
2021/01/17 09:10:48;;;;;;;0.87;0.87;;;2.40;99.90;;;;;;5010220;28;20302;-80
2021/01/17 09:13:20;;;;;;;1.83;1.00;;;2.50;99.90;;;;;;5005851;28;20179;-80
2021/01/17 09:16:03;;;;;;;1.80;0.67;;;2.50;99.90;;;;;;5009793;28;20183;-80
2021/01/17 09:18:36;;;;;;;1.77;1.03;;;2.50;99.90;;;;;;5010619;28;20206;-81
2021/01/17 09:21:04;;;;;;;1.23;1.17;;;2.50;99.90;;;;;;5008596;28;20179;-80
2021/01/17 09:23:37;;;;;;;0.70;0.70;;;2.60;99.90;;;;;;5009785;28;23487;-79
2021/01/17 09:26:02;;;;;;;0.60;0.60;;;2.60;99.90;;;;;;5006870;28;20230;-80
2021/01/17 09:28:29;;;;;;;0.57;0.57;;;2.60;99.90;;;;;;5000104;28;20207;-80
2021/01/17 09:30:56;;;;;;;0.47;0.47;;;2.60;99.90;;;;;;5005944;28;20668;-80
2021/01/17 09:33:22;;;;;;;0.50;0.50;;;2.70;99.90;;;;;;5012866;28;20183;-80
2021/01/17 09:35:49;;;;;;;1.73;1.37;;;2.60;99.90;;;;;;5010269;28;20615;-80
2021/01/17 09:38:17;;;;;;;1.10;1.00;;;2.70;99.90;;;;;;5014715;28;20243;-80
2021/01/17 09:40:45;;;;;;;1.43;1.33;;;2.70;99.90;;;;;;5010257;28;20188;-81
2021/01/17 09:43:11;;;;;;;2.77;0.93;;;2.70;99.90;;;;;;5028113;28;20326;-80
2021/01/17 09:45:37;;;;;;;1.50;1.40;;;2.70;99.90;;;;;;5011567;28;20194;-78
2021/01/17 09:48:03;;;;;;;0.60;0.50;;;2.50;99.90;;;;;;5010568;28;20211;-79
2021/01/17 09:50:36;;;;;;;1.23;1.13;;;2.60;99.90;;;;;;5010432;28;20550;-80
2021/01/17 09:53:09;;;;;;;1.47;1.30;;;2.70;99.90;;;;;;5009836;28;20187;-80
2021/01/17 09:55:38;;;;;;;1.07;0.87;;;2.70;99.90;;;;;;5010568;28;20670;-80
2021/01/17 09:58:08;;;;;;;0.50;0.50;;;2.80;99.90;;;;;;5010329;28;20593;-78
2021/01/17 10:00:34;;;;;;;0.90;0.90;;;2.90;99.90;;;;;;5006816;28;20651;-78
2021/01/17 10:03:15;;;;;;;0.57;0.37;;;3.10;99.90;;;;;;5008922;28;20179;-79
2021/01/17 10:05:43;;;;;;;5.80;3.57;;;3.10;99.90;;;;;;5011650;28;20551;-80
2021/01/17 10:08:10;;;;;;;1.33;1.27;;;3.10;99.90;;;;;;5007572;28;20217;-78
2021/01/17 10:10:38;;;;;;;3.67;0.90;;;3.20;99.90;;;;;;5004305;28;20226;-77
2021/01/17 10:13:05;;;;;;;1.77;1.67;;;3.20;99.90;;;;;;5011920;28;20191;-80
2021/01/17 10:15:31;;;;;;;1.60;0.80;;;3.30;99.90;;;;;;5012302;28;20683;-78
2021/01/17 10:17:57;;;;;;;0.97;0.77;;;3.30;99.90;;;;;;5008378;28;20235;-80
2021/01/17 10:20:35;;;;;;;5.17;1.50;;;3.30;99.90;;;;;;5011131;28;20241;-77
2021/01/17 10:23:07;;;;;;;0.93;0.93;;;3.10;99.90;;;;;;5009558;28;20209;-81
2021/01/17 10:25:34;;;;;;;4.70;1.40;;;3.30;99.90;;;;;;5007335;28;20853;-80
2021/01/17 10:28:04;;;;;;;2.43;2.07;;;3.50;99.90;;;;;;4999455;28;20264;-80
2021/01/17 10:30:32;;;;;;;0.57;0.50;;;3.50;99.90;;;;;;5008802;28;20207;-80
2021/01/17 10:33:05;;;;;;;0.93;0.80;;;3.70;99.90;;;;;;5008213;28;20193;-80
2021/01/17 10:35:36;;;;;;;0.47;0.47;;;3.90;99.90;;;;;;4998567;28;20241;-80
2021/01/17 10:38:04;;;;;;;0.67;0.67;;;4.00;99.90;;;;;;5007825;28;20218;-80
2021/01/17 10:40:30;;;;;;;1.00;0.53;;;4.10;99.90;;;;;;5007560;28;20187;-79
2021/01/17 10:43:09;;;;;;;0.50;0.50;;;4.30;99.90;;;;;;5005970;28;20195;-80
2021/01/17 10:45:36;;;;;;;0.50;0.50;;;4.30;99.90;;;;;;5022544;28;20189;-79
2021/01/17 10:48:11;;;;;;;0.93;0.77;;;4.40;99.90;;;;;;5026337;28;20298;-79
2021/01/17 10:50:52;;;;;;;0.50;0.40;;;4.40;99.90;;;;;;5007469;28;20207;-80
2021/01/17 10:53:23;;;;;;;0.93;0.93;;;4.10;99.90;;;;;;5017879;28;20242;-80
2021/01/17 10:55:52;;;;;;;0.93;0.93;;;4.00;99.90;;;;;;5009010;28;20212;-78
2021/01/17 10:58:23;;;;;;;0.47;0.47;;;3.90;99.90;;;;;;5009511;28;20212;-79
2021/01/17 11:00:51;;;;;;;0.70;0.70;;;3.90;99.90;;;;;;5007015;28;20195;-80
2021/01/17 11:03:30;;;;;;;1.20;1.03;;;4.10;99.90;;;;;;5004745;28;20190;-78
2021/01/17 11:06:29;;;;;;;0.93;0.70;;;4.20;99.90;;;;;;5006629;28;20223;-80
2021/01/17 11:08:56;;;;;;;1.27;0.97;;;4.30;99.90;;;;;;4992779;28;20238;-78
2021/01/17 11:11:29;;;;;;;1.07;0.70;;;4.40;99.90;;;;;;5007873;28;20286;-81
2021/01/17 11:14:03;;;;;;;2.43;0.90;;;4.50;99.90;;;;;;5007617;28;20188;-81
2021/01/17 11:16:54;;;;;;;0.47;0.47;;;4.70;99.90;;;;;;5009757;28;20194;-80
2021/01/17 11:19:43;;;;;;;1.13;1.00;;;4.70;99.90;;;;;;5006008;28;20609;-80
2021/01/17 11:22:08;;;;;;;1.43;0.80;;;4.70;99.90;;;;;;5001236;28;20197;-80
2021/01/17 11:24:41;;;;;;;1.37;0.93;;;4.80;99.90;;;;;;5006037;28;20193;-81
2021/01/17 11:27:12;;;;;;;0.77;0.20;;;4.70;99.90;;;;;;5023961;28;20560;-80
2021/01/17 11:29:40;;;;;;;0.67;0.67;;;4.70;99.90;;;;;;5006445;28;20709;-78
2021/01/17 11:32:05;;;;;;;0.93;0.90;;;4.50;99.90;;;;;;5005702;28;20204;-79
2021/01/17 11:34:36;;;;;;;0.97;0.67;;;4.50;99.90;;;;;;5004182;28;20657;-80
2021/01/17 11:37:02;;;;;;;0.40;0.40;;;4.60;99.90;;;;;;5011333;28;20195;-80
2021/01/17 11:39:28;;;;;;;2.40;1.27;;;4.70;99.90;;;;;;5010156;28;20292;-80
2021/01/17 11:41:55;;;;;;;2.13;0.83;;;4.80;99.90;;;;;;5007565;28;20189;-78
2021/01/17 11:44:23;;;;;;;1.50;1.13;;;5.00;99.90;;;;;;5004158;28;20181;-80
2021/01/17 11:46:49;;;;;;;4.40;1.50;;;5.00;99.90;;;;;;5008962;28;20181;-80
2021/01/17 11:49:20;;;;;;;0.63;0.43;;;4.90;99.90;;;;;;5006188;28;20870;-81
2021/01/17 11:51:46;;;;;;;1.37;0.93;;;4.80;99.90;;;;;;5003584;28;20304;-80
2021/01/17 11:54:13;;;;;;;2.00;0.83;;;4.70;99.90;;;;;;5007901;28;20259;-78
2021/01/17 11:56:39;;;;;;;0.23;0.23;;;4.60;99.90;;;;;;5010452;28;20216;-80
2021/01/17 11:59:05;;;;;;;1.10;1.00;;;4.50;99.90;;;;;;5004959;28;20210;-80
2021/01/17 12:01:31;;;;;;;1.53;1.10;;;4.30;99.90;;;;;;5005770;28;20679;-80
2021/01/17 12:04:12;;;;;;;0.50;0.37;;;4.30;99.90;;;;;;5006276;28;20190;-80
2021/01/17 12:06:38;;;;;;;0.67;0.67;;;4.30;99.90;;;;;;5008419;28;20179;-80
2021/01/17 12:09:05;;;;;;;1.40;0.93;;;4.30;99.90;;;;;;5010481;28;20267;-80
2021/01/17 12:11:43;;;;;;;0.63;0.63;;;4.20;99.90;;;;;;5000472;28;20289;-80
2021/01/17 12:14:10;;;;;;;0.83;0.80;;;4.30;99.90;;;;;;5008623;28;20215;-80
2021/01/17 12:16:40;;;;;;;0.90;0.90;;;4.40;99.90;;;;;;5011385;28;20567;-80
2021/01/17 12:19:08;;;;;;;0.80;0.80;;;4.30;99.90;;;;;;5012287;28;20703;-80
2021/01/17 12:21:34;;;;;;;0.50;0.50;;;4.50;99.90;;;;;;5011264;28;20200;-80
2021/01/17 12:24:01;;;;;;;1.27;0.80;;;4.50;99.90;;;;;;5013234;28;20599;-79
2021/01/17 12:26:27;;;;;;;1.93;1.10;;;4.30;99.90;;;;;;5012205;28;20201;-80
2021/01/17 12:28:53;;;;;;;11.23;1.53;;;4.30;99.90;;;;;;5010671;28;20205;-80
2021/01/17 12:31:21;;;;;;;1.20;1.20;;;4.40;99.90;;;;;;5012200;28;20273;-80
2021/01/17 12:33:47;;;;;;;0.90;0.90;;;4.20;99.90;;;;;;5019555;28;20181;-80
2021/01/17 12:36:16;;;;;;;3.17;0.73;;;4.20;99.90;;;;;;5011149;28;20182;-80
2021/01/17 12:38:42;;;;;;;1.80;1.33;;;4.30;99.90;;;;;;5013851;28;20216;-80
2021/01/17 12:41:10;;;;;;;0.97;0.77;;;4.20;99.90;;;;;;5012435;28;20289;-78
2021/01/17 12:43:37;;;;;;;1.40;0.93;;;4.20;99.90;;;;;;5012807;28;20184;-79
2021/01/17 12:46:07;;;;;;;1.20;1.10;;;4.20;99.90;;;;;;5010877;28;20218;-78
2021/01/17 12:48:34;;;;;;;1.57;1.47;;;4.10;99.90;;;;;;5010322;28;20212;-80
2021/01/17 12:50:59;;;;;;;4.80;1.23;;;4.20;99.90;;;;;;5026584;28;20900;-80
2021/01/17 12:53:25;;;;;;;2.53;0.87;;;4.40;99.90;;;;;;5011550;28;20191;-80
2021/01/17 12:55:51;;;;;;;3.20;1.60;;;4.60;99.90;;;;;;5006802;28;20196;-80
2021/01/17 12:58:17;;;;;;;0.60;0.60;;;4.50;99.90;;;;;;5002032;28;20300;-79
2021/01/17 13:00:42;;;;;;;1.77;1.57;;;4.40;99.90;;;;;;5008303;28;20190;-80
2021/01/17 13:03:08;;;;;;;1.93;1.67;;;4.20;99.90;;;;;;5010349;28;20203;-78
2021/01/17 13:05:34;;;;;;;1.10;0.90;;;4.20;99.90;;;;;;5012313;28;20209;-80
2021/01/17 13:08:00;;;;;;;2.03;1.13;;;4.10;99.90;;;;;;5009554;28;20213;-80
2021/01/17 13:10:26;;;;;;;2.23;1.70;;;4.00;99.90;;;;;;5008446;28;20199;-80
2021/01/17 13:12:51;;;;;;;1.27;1.10;;;3.90;99.90;;;;;;5009619;28;20191;-80